sensor_id;sensor_type;location;lat;lon;timestamp;pressure;altitude;pressure_sealevel;temperature;humidity
57024;BME280;42916;54.346;18.562;2023-04-26T00:02:24;99560.46;;;4.61;70.77
57024;BME280;42916;54.346;18.562;2023-04-26T00:04:53;99561.59;;;4.57;70.97
57024;BME280;42916;54.346;18.562;2023-04-26T00:07:22;99559.20;;;4.50;71.12
57024;BME280;42916;54.346;18.562;2023-04-26T00:09:50;99567.52;;;4.47;71.14
57024;BME280;42916;54.346;18.562;2023-04-26T00:12:20;99563.95;;;4.45;71.12
57024;BME280;42916;54.346;18.562;2023-04-26T00:14:47;99560.27;;;4.45;71.33
57024;BME280;42916;54.346;18.562;2023-04-26T00:17:14;99557.92;;;4.44;71.78
57024;BME280;42916;54.346;18.562;2023-04-26T00:19:41;99554.99;;;4.41;72.09
57024;BME280;42916;54.346;18.562;2023-04-26T00:22:08;99554.02;;;4.38;72.07
57024;BME280;42916;54.346;18.562;2023-04-26T00:24:35;99554.23;;;4.35;72.55
57024;BME280;42916;54.346;18.562;2023-04-26T00:27:02;99558.27;;;4.33;72.45
57024;BME280;42916;54.346;18.562;2023-04-26T00:29:34;99562.50;;;4.31;72.52
57024;BME280;42916;54.346;18.562;2023-04-26T00:32:01;99555.24;;;4.30;72.74
57024;BME280;42916;54.346;18.562;2023-04-26T00:34:35;99559.57;;;4.28;72.65
57024;BME280;42916;54.346;18.562;2023-04-26T00:37:04;99557.00;;;4.29;72.88
57024;BME280;42916;54.346;18.562;2023-04-26T00:39:31;99556.77;;;4.31;72.91
57024;BME280;42916;54.346;18.562;2023-04-26T00:41:58;99554.19;;;4.36;72.98
57024;BME280;42916;54.346;18.562;2023-04-26T00:44:24;99551.50;;;4.38;73.38
57024;BME280;42916;54.346;18.562;2023-04-26T00:46:53;99552.54;;;4.39;73.50
57024;BME280;42916;54.346;18.562;2023-04-26T00:49:23;99551.34;;;4.41;73.52
57024;BME280;42916;54.346;18.562;2023-04-26T00:51:51;99547.71;;;4.43;73.74
57024;BME280;42916;54.346;18.562;2023-04-26T00:54:19;99549.77;;;4.43;73.70
57024;BME280;42916;54.346;18.562;2023-04-26T00:56:47;99544.40;;;4.44;73.77
57024;BME280;42916;54.346;18.562;2023-04-26T00:59:19;99541.20;;;4.45;73.81
57024;BME280;42916;54.346;18.562;2023-04-26T01:01:45;99544.42;;;4.46;73.99
57024;BME280;42916;54.346;18.562;2023-04-26T01:04:15;99546.27;;;4.48;73.95
57024;BME280;42916;54.346;18.562;2023-04-26T01:06:42;99548.16;;;4.51;73.71
57024;BME280;42916;54.346;18.562;2023-04-26T01:09:09;99549.45;;;4.58;73.69
57024;BME280;42916;54.346;18.562;2023-04-26T01:11:41;99550.54;;;4.64;73.83
57024;BME280;42916;54.346;18.562;2023-04-26T01:14:09;99558.97;;;4.67;73.95
57024;BME280;42916;54.346;18.562;2023-04-26T01:16:38;99558.98;;;4.71;74.06
57024;BME280;42916;54.346;18.562;2023-04-26T01:19:10;99555.73;;;4.75;73.89
57024;BME280;42916;54.346;18.562;2023-04-26T01:21:39;99557.17;;;4.77;74.00
57024;BME280;42916;54.346;18.562;2023-04-26T01:24:09;99559.42;;;4.79;74.00
57024;BME280;42916;54.346;18.562;2023-04-26T01:26:38;99556.64;;;4.80;73.79
57024;BME280;42916;54.346;18.562;2023-04-26T01:31:40;99550.33;;;4.81;73.75
57024;BME280;42916;54.346;18.562;2023-04-26T01:34:07;99550.36;;;4.81;73.64
57024;BME280;42916;54.346;18.562;2023-04-26T01:36:34;99547.20;;;4.82;73.70
57024;BME280;42916;54.346;18.562;2023-04-26T01:39:00;99548.77;;;4.85;73.87
57024;BME280;42916;54.346;18.562;2023-04-26T01:41:27;99545.92;;;4.88;73.73
57024;BME280;42916;54.346;18.562;2023-04-26T01:43:54;99551.23;;;4.89;73.71
57024;BME280;42916;54.346;18.562;2023-04-26T01:46:21;99550.37;;;4.92;73.79
57024;BME280;42916;54.346;18.562;2023-04-26T01:48:48;99551.19;;;4.92;73.86
57024;BME280;42916;54.346;18.562;2023-04-26T01:51:14;99554.31;;;4.93;73.83
57024;BME280;42916;54.346;18.562;2023-04-26T01:53:42;99553.66;;;4.93;73.85
57024;BME280;42916;54.346;18.562;2023-04-26T01:56:09;99549.40;;;4.93;73.93
57024;BME280;42916;54.346;18.562;2023-04-26T01:58:37;99548.04;;;4.92;73.72
57024;BME280;42916;54.346;18.562;2023-04-26T02:01:05;99548.80;;;4.92;73.83
57024;BME280;42916;54.346;18.562;2023-04-26T02:03:34;99546.36;;;4.95;74.06
57024;BME280;42916;54.346;18.562;2023-04-26T02:06:01;99547.93;;;4.97;73.95
57024;BME280;42916;54.346;18.562;2023-04-26T02:08:29;99551.52;;;4.98;74.17
57024;BME280;42916;54.346;18.562;2023-04-26T02:10:56;99547.48;;;4.99;73.98
57024;BME280;42916;54.346;18.562;2023-04-26T02:13:23;99548.56;;;4.99;74.10
57024;BME280;42916;54.346;18.562;2023-04-26T02:15:50;99544.41;;;4.99;74.13
57024;BME280;42916;54.346;18.562;2023-04-26T02:18:18;99541.14;;;4.99;74.30
57024;BME280;42916;54.346;18.562;2023-04-26T02:20:47;99542.14;;;4.99;74.04
57024;BME280;42916;54.346;18.562;2023-04-26T02:23:14;99546.45;;;4.97;74.30
57024;BME280;42916;54.346;18.562;2023-04-26T02:25:47;99542.45;;;4.96;74.02
57024;BME280;42916;54.346;18.562;2023-04-26T02:28:14;99540.77;;;4.96;74.04
57024;BME280;42916;54.346;18.562;2023-04-26T02:30:41;99540.41;;;4.98;74.24
57024;BME280;42916;54.346;18.562;2023-04-26T02:33:09;99543.38;;;5.01;74.09
57024;BME280;42916;54.346;18.562;2023-04-26T02:35:36;99547.01;;;5.02;74.51
57024;BME280;42916;54.346;18.562;2023-04-26T02:38:04;99545.42;;;5.03;74.57
57024;BME280;42916;54.346;18.562;2023-04-26T02:40:31;99551.27;;;5.03;74.26
57024;BME280;42916;54.346;18.562;2023-04-26T02:42:58;99542.11;;;5.02;74.51
57024;BME280;42916;54.346;18.562;2023-04-26T02:45:24;99545.73;;;5.01;74.66
57024;BME280;42916;54.346;18.562;2023-04-26T02:47:51;99544.92;;;5.00;74.71
57024;BME280;42916;54.346;18.562;2023-04-26T02:50:18;99544.62;;;4.99;74.55
57024;BME280;42916;54.346;18.562;2023-04-26T02:52:47;99545.33;;;4.97;74.51
57024;BME280;42916;54.346;18.562;2023-04-26T02:55:14;99543.11;;;4.96;74.44
57024;BME280;42916;54.346;18.562;2023-04-26T02:57:40;99540.25;;;4.98;74.60
57024;BME280;42916;54.346;18.562;2023-04-26T03:00:08;99538.99;;;5.00;74.81
57024;BME280;42916;54.346;18.562;2023-04-26T03:02:35;99545.31;;;5.01;74.86
57024;BME280;42916;54.346;18.562;2023-04-26T03:05:02;99546.39;;;5.01;74.91
57024;BME280;42916;54.346;18.562;2023-04-26T03:07:29;99543.48;;;5.00;75.24
57024;BME280;42916;54.346;18.562;2023-04-26T03:09:57;99545.55;;;5.00;75.16
57024;BME280;42916;54.346;18.562;2023-04-26T03:12:24;99549.19;;;4.98;75.03
57024;BME280;42916;54.346;18.562;2023-04-26T03:14:50;99544.14;;;4.96;75.12
57024;BME280;42916;54.346;18.562;2023-04-26T03:17:17;99546.75;;;4.95;75.15
57024;BME280;42916;54.346;18.562;2023-04-26T03:19:44;99543.15;;;4.92;75.36
57024;BME280;42916;54.346;18.562;2023-04-26T03:22:12;99545.70;;;4.91;75.24
57024;BME280;42916;54.346;18.562;2023-04-26T03:24:42;99546.91;;;4.92;75.40
57024;BME280;42916;54.346;18.562;2023-04-26T03:27:10;99548.88;;;4.94;75.52
57024;BME280;42916;54.346;18.562;2023-04-26T03:29:37;99552.14;;;4.94;75.63
57024;BME280;42916;54.346;18.562;2023-04-26T03:32:04;99552.55;;;4.94;75.88
57024;BME280;42916;54.346;18.562;2023-04-26T03:34:31;99557.66;;;4.94;75.85
57024;BME280;42916;54.346;18.562;2023-04-26T03:36:58;99554.28;;;4.91;76.12
57024;BME280;42916;54.346;18.562;2023-04-26T03:39:25;99554.80;;;4.90;75.95
57024;BME280;42916;54.346;18.562;2023-04-26T03:41:52;99553.89;;;4.90;75.78
57024;BME280;42916;54.346;18.562;2023-04-26T03:44:19;99560.56;;;4.89;76.07
57024;BME280;42916;54.346;18.562;2023-04-26T03:46:46;99558.42;;;4.88;75.97
57024;BME280;42916;54.346;18.562;2023-04-26T03:49:12;99560.42;;;4.86;76.00
57024;BME280;42916;54.346;18.562;2023-04-26T03:51:39;99562.64;;;4.85;75.91
57024;BME280;42916;54.346;18.562;2023-04-26T03:54:06;99562.23;;;4.89;75.91
57024;BME280;42916;54.346;18.562;2023-04-26T03:56:33;99564.94;;;4.90;75.99
57024;BME280;42916;54.346;18.562;2023-04-26T03:59:01;99564.45;;;4.90;76.02
57024;BME280;42916;54.346;18.562;2023-04-26T04:01:28;99567.16;;;4.88;76.18
57024;BME280;42916;54.346;18.562;2023-04-26T04:03:55;99568.83;;;4.88;76.09
57024;BME280;42916;54.346;18.562;2023-04-26T04:06:22;99573.83;;;4.87;76.18
57024;BME280;42916;54.346;18.562;2023-04-26T04:08:49;99573.58;;;4.86;76.19
57024;BME280;42916;54.346;18.562;2023-04-26T04:11:16;99576.98;;;4.83;76.34
57024;BME280;42916;54.346;18.562;2023-04-26T04:13:43;99576.49;;;4.81;76.38
57024;BME280;42916;54.346;18.562;2023-04-26T04:16:10;99577.16;;;4.82;76.22
57024;BME280;42916;54.346;18.562;2023-04-26T04:18:37;99575.95;;;4.83;76.58
57024;BME280;42916;54.346;18.562;2023-04-26T04:21:04;99578.55;;;4.84;76.46
57024;BME280;42916;54.346;18.562;2023-04-26T04:23:31;99578.70;;;4.86;76.52
57024;BME280;42916;54.346;18.562;2023-04-26T04:25:58;99581.66;;;4.88;76.34
57024;BME280;42916;54.346;18.562;2023-04-26T04:28:25;99587.59;;;4.88;76.40
57024;BME280;42916;54.346;18.562;2023-04-26T04:30:55;99589.16;;;4.86;76.14
57024;BME280;42916;54.346;18.562;2023-04-26T04:33:23;99584.77;;;4.84;76.27
57024;BME280;42916;54.346;18.562;2023-04-26T04:35:51;99584.88;;;4.85;76.26
57024;BME280;42916;54.346;18.562;2023-04-26T04:38:18;99584.82;;;4.84;76.45
57024;BME280;42916;54.346;18.562;2023-04-26T04:40:48;99583.14;;;4.84;76.21
57024;BME280;42916;54.346;18.562;2023-04-26T04:43:18;99585.83;;;4.84;76.31
57024;BME280;42916;54.346;18.562;2023-04-26T04:45:45;99583.91;;;4.85;76.39
57024;BME280;42916;54.346;18.562;2023-04-26T04:48:15;99584.06;;;4.90;76.39
57024;BME280;42916;54.346;18.562;2023-04-26T04:50:42;99587.31;;;4.96;76.34
57024;BME280;42916;54.346;18.562;2023-04-26T04:53:10;99595.05;;;5.00;76.54
57024;BME280;42916;54.346;18.562;2023-04-26T04:55:38;99592.68;;;5.01;76.39
57024;BME280;42916;54.346;18.562;2023-04-26T04:58:05;99595.40;;;5.04;76.50
57024;BME280;42916;54.346;18.562;2023-04-26T05:00:33;99592.87;;;5.04;76.32
57024;BME280;42916;54.346;18.562;2023-04-26T05:03:07;99593.23;;;5.06;76.19
57024;BME280;42916;54.346;18.562;2023-04-26T05:05:35;99598.46;;;5.08;76.13
57024;BME280;42916;54.346;18.562;2023-04-26T05:08:03;99601.27;;;5.11;75.94
57024;BME280;42916;54.346;18.562;2023-04-26T05:10:33;99596.55;;;5.13;76.14
57024;BME280;42916;54.346;18.562;2023-04-26T05:13:01;99601.79;;;5.16;76.10
57024;BME280;42916;54.346;18.562;2023-04-26T05:15:28;99605.40;;;5.19;76.15
57024;BME280;42916;54.346;18.562;2023-04-26T05:17:55;99604.91;;;5.19;76.03
57024;BME280;42916;54.346;18.562;2023-04-26T05:20:24;99608.71;;;5.20;76.30
57024;BME280;42916;54.346;18.562;2023-04-26T05:22:51;99612.86;;;5.19;76.11
57024;BME280;42916;54.346;18.562;2023-04-26T05:25:18;99612.59;;;5.19;76.17
57024;BME280;42916;54.346;18.562;2023-04-26T05:27:47;99616.35;;;5.19;75.90
57024;BME280;42916;54.346;18.562;2023-04-26T05:30:37;99618.38;;;5.18;76.27
57024;BME280;42916;54.346;18.562;2023-04-26T05:33:26;99616.11;;;5.20;76.29
57024;BME280;42916;54.346;18.562;2023-04-26T05:36:11;99614.47;;;5.27;76.13
57024;BME280;42916;54.346;18.562;2023-04-26T05:38:38;99615.01;;;5.33;76.08
57024;BME280;42916;54.346;18.562;2023-04-26T05:41:05;99611.25;;;5.34;75.91
57024;BME280;42916;54.346;18.562;2023-04-26T05:43:31;99606.25;;;5.37;76.00
57024;BME280;42916;54.346;18.562;2023-04-26T05:45:59;99601.68;;;5.44;75.85
57024;BME280;42916;54.346;18.562;2023-04-26T05:48:27;99599.52;;;5.46;75.49
57024;BME280;42916;54.346;18.562;2023-04-26T05:50:55;99609.75;;;5.49;75.48
57024;BME280;42916;54.346;18.562;2023-04-26T05:53:21;99617.79;;;5.48;75.07
57024;BME280;42916;54.346;18.562;2023-04-26T05:55:48;99616.59;;;5.48;75.22
57024;BME280;42916;54.346;18.562;2023-04-26T05:58:15;99620.59;;;5.57;75.61
57024;BME280;42916;54.346;18.562;2023-04-26T06:00:42;99615.34;;;5.71;75.58
57024;BME280;42916;54.346;18.562;2023-04-26T06:03:09;99614.34;;;5.82;75.14
57024;BME280;42916;54.346;18.562;2023-04-26T06:05:36;99620.27;;;5.86;75.01
57024;BME280;42916;54.346;18.562;2023-04-26T06:08:07;99623.19;;;5.91;74.82
57024;BME280;42916;54.346;18.562;2023-04-26T06:10:34;99625.14;;;5.91;73.93
57024;BME280;42916;54.346;18.562;2023-04-26T06:13:02;99624.46;;;5.86;74.02
57024;BME280;42916;54.346;18.562;2023-04-26T06:15:31;99623.96;;;5.88;73.95
57024;BME280;42916;54.346;18.562;2023-04-26T06:17:59;99617.90;;;5.88;73.82
57024;BME280;42916;54.346;18.562;2023-04-26T06:20:26;99621.85;;;5.88;73.62
57024;BME280;42916;54.346;18.562;2023-04-26T06:22:53;99621.08;;;5.87;73.65
57024;BME280;42916;54.346;18.562;2023-04-26T06:25:20;99624.42;;;5.87;73.06
57024;BME280;42916;54.346;18.562;2023-04-26T06:27:47;99626.86;;;5.88;72.74
57024;BME280;42916;54.346;18.562;2023-04-26T06:30:14;99629.88;;;5.87;72.83
57024;BME280;42916;54.346;18.562;2023-04-26T06:32:43;99627.20;;;5.88;73.11
57024;BME280;42916;54.346;18.562;2023-04-26T06:35:10;99623.71;;;5.95;73.21
57024;BME280;42916;54.346;18.562;2023-04-26T06:37:37;99621.64;;;6.05;72.92
57024;BME280;42916;54.346;18.562;2023-04-26T06:40:06;99618.95;;;6.12;72.36
57024;BME280;42916;54.346;18.562;2023-04-26T06:42:33;99626.78;;;6.13;71.51
57024;BME280;42916;54.346;18.562;2023-04-26T06:45:20;99622.91;;;6.08;70.92
57024;BME280;42916;54.346;18.562;2023-04-26T06:47:50;99617.67;;;6.00;70.31
57024;BME280;42916;54.346;18.562;2023-04-26T06:50:17;99617.41;;;5.98;70.86
57024;BME280;42916;54.346;18.562;2023-04-26T06:52:44;99618.84;;;6.03;71.13
57024;BME280;42916;54.346;18.562;2023-04-26T06:55:11;99619.33;;;6.16;70.96
57024;BME280;42916;54.346;18.562;2023-04-26T06:57:38;99616.19;;;6.33;70.97
57024;BME280;42916;54.346;18.562;2023-04-26T07:00:05;99617.65;;;6.48;70.64
57024;BME280;42916;54.346;18.562;2023-04-26T07:02:32;99622.35;;;6.66;70.44
57024;BME280;42916;54.346;18.562;2023-04-26T07:04:59;99630.83;;;6.77;70.14
57024;BME280;42916;54.346;18.562;2023-04-26T07:07:26;99636.57;;;6.82;69.48
57024;BME280;42916;54.346;18.562;2023-04-26T07:09:53;99631.61;;;6.82;69.48
57024;BME280;42916;54.346;18.562;2023-04-26T07:12:19;99637.39;;;6.86;69.02
57024;BME280;42916;54.346;18.562;2023-04-26T07:14:47;99635.93;;;6.86;68.42
57024;BME280;42916;54.346;18.562;2023-04-26T07:17:13;99636.34;;;6.77;67.21
57024;BME280;42916;54.346;18.562;2023-04-26T07:19:40;99634.46;;;6.66;67.40
57024;BME280;42916;54.346;18.562;2023-04-26T07:22:07;99636.42;;;6.63;68.01
57024;BME280;42916;54.346;18.562;2023-04-26T07:24:34;99642.90;;;6.66;67.94
57024;BME280;42916;54.346;18.562;2023-04-26T07:27:01;99639.69;;;6.61;67.77
57024;BME280;42916;54.346;18.562;2023-04-26T07:29:28;99645.55;;;6.59;68.11
57024;BME280;42916;54.346;18.562;2023-04-26T07:31:55;99638.08;;;6.58;68.00
57024;BME280;42916;54.346;18.562;2023-04-26T07:34:24;99641.57;;;6.60;68.37
57024;BME280;42916;54.346;18.562;2023-04-26T07:36:51;99650.23;;;6.61;67.78
57024;BME280;42916;54.346;18.562;2023-04-26T07:39:18;99642.04;;;6.63;67.69
57024;BME280;42916;54.346;18.562;2023-04-26T07:41:45;99648.82;;;6.65;67.37
57024;BME280;42916;54.346;18.562;2023-04-26T07:44:12;99649.46;;;6.61;67.65
57024;BME280;42916;54.346;18.562;2023-04-26T07:46:38;99648.03;;;6.62;67.45
57024;BME280;42916;54.346;18.562;2023-04-26T07:49:05;99649.66;;;6.66;67.13
57024;BME280;42916;54.346;18.562;2023-04-26T07:51:34;99651.55;;;6.66;67.25
57024;BME280;42916;54.346;18.562;2023-04-26T07:54:02;99651.98;;;6.70;67.38
57024;BME280;42916;54.346;18.562;2023-04-26T07:56:28;99652.79;;;6.70;67.06
57024;BME280;42916;54.346;18.562;2023-04-26T07:58:55;99651.98;;;6.62;66.85
57024;BME280;42916;54.346;18.562;2023-04-26T08:01:22;99658.73;;;6.62;67.44
57024;BME280;42916;54.346;18.562;2023-04-26T08:03:49;99655.77;;;6.67;67.59
57024;BME280;42916;54.346;18.562;2023-04-26T08:06:16;99662.29;;;6.72;67.32
57024;BME280;42916;54.346;18.562;2023-04-26T08:08:43;99655.19;;;6.71;67.08
57024;BME280;42916;54.346;18.562;2023-04-26T08:11:16;99661.27;;;6.68;67.25
57024;BME280;42916;54.346;18.562;2023-04-26T08:13:42;99664.48;;;6.60;67.42
57024;BME280;42916;54.346;18.562;2023-04-26T08:16:09;99661.27;;;6.55;67.70
57024;BME280;42916;54.346;18.562;2023-04-26T08:18:36;99665.62;;;6.56;68.22
57024;BME280;42916;54.346;18.562;2023-04-26T08:21:03;99666.61;;;6.54;68.06
57024;BME280;42916;54.346;18.562;2023-04-26T08:23:34;99665.39;;;6.48;68.18
57024;BME280;42916;54.346;18.562;2023-04-26T08:26:02;99664.13;;;6.40;68.29
57024;BME280;42916;54.346;18.562;2023-04-26T08:28:29;99667.89;;;6.29;69.49
57024;BME280;42916;54.346;18.562;2023-04-26T08:30:56;99667.11;;;6.19;69.80
57024;BME280;42916;54.346;18.562;2023-04-26T08:33:24;99669.02;;;6.13;70.80
57024;BME280;42916;54.346;18.562;2023-04-26T08:35:51;99672.26;;;6.04;71.26
57024;BME280;42916;54.346;18.562;2023-04-26T08:38:18;99675.78;;;5.96;71.84
57024;BME280;42916;54.346;18.562;2023-04-26T08:40:45;99684.15;;;5.91;72.44
57024;BME280;42916;54.346;18.562;2023-04-26T08:43:14;99685.30;;;5.89;72.48
57024;BME280;42916;54.346;18.562;2023-04-26T08:45:44;99683.55;;;5.84;72.64
57024;BME280;42916;54.346;18.562;2023-04-26T08:48:15;99684.33;;;5.80;72.97
57024;BME280;42916;54.346;18.562;2023-04-26T08:50:44;99682.23;;;5.83;73.12
57024;BME280;42916;54.346;18.562;2023-04-26T08:53:13;99682.55;;;5.92;73.18
57024;BME280;42916;54.346;18.562;2023-04-26T08:55:44;99682.42;;;6.01;73.27
57024;BME280;42916;54.346;18.562;2023-04-26T08:58:13;99687.67;;;6.08;73.29
57024;BME280;42916;54.346;18.562;2023-04-26T09:00:42;99691.54;;;6.13;73.20
57024;BME280;42916;54.346;18.562;2023-04-26T09:03:10;99688.08;;;6.16;73.11
57024;BME280;42916;54.346;18.562;2023-04-26T09:05:40;99692.48;;;6.20;73.27
57024;BME280;42916;54.346;18.562;2023-04-26T09:08:15;99693.90;;;6.22;72.93
57024;BME280;42916;54.346;18.562;2023-04-26T09:10:43;99697.55;;;6.20;72.85
57024;BME280;42916;54.346;18.562;2023-04-26T09:13:10;99707.98;;;6.17;72.99
57024;BME280;42916;54.346;18.562;2023-04-26T09:15:37;99699.55;;;6.21;73.04
57024;BME280;42916;54.346;18.562;2023-04-26T09:18:21;99703.01;;;6.27;73.26
57024;BME280;42916;54.346;18.562;2023-04-26T09:21:06;99710.50;;;6.28;73.39
57024;BME280;42916;54.346;18.562;2023-04-26T09:23:34;99706.87;;;6.24;73.41
57024;BME280;42916;54.346;18.562;2023-04-26T09:26:17;99708.77;;;6.20;73.65
57024;BME280;42916;54.346;18.562;2023-04-26T09:28:45;99707.98;;;6.20;73.86
57024;BME280;42916;54.346;18.562;2023-04-26T09:31:36;99710.46;;;6.20;73.68
57024;BME280;42916;54.346;18.562;2023-04-26T09:34:04;99718.47;;;6.18;73.68
57024;BME280;42916;54.346;18.562;2023-04-26T09:36:31;99723.77;;;6.15;73.68
57024;BME280;42916;54.346;18.562;2023-04-26T09:38:58;99718.09;;;6.15;73.87
57024;BME280;42916;54.346;18.562;2023-04-26T09:41:41;99720.39;;;6.16;74.12
57024;BME280;42916;54.346;18.562;2023-04-26T09:44:22;99728.79;;;6.21;74.49
57024;BME280;42916;54.346;18.562;2023-04-26T09:47:06;99730.23;;;6.30;74.50
57024;BME280;42916;54.346;18.562;2023-04-26T09:49:49;99730.25;;;6.37;74.67
57024;BME280;42916;54.346;18.562;2023-04-26T09:52:18;99734.16;;;6.41;74.84
57024;BME280;42916;54.346;18.562;2023-04-26T09:54:52;99740.41;;;6.50;75.19
57024;BME280;42916;54.346;18.562;2023-04-26T09:57:21;99739.08;;;6.50;75.71
57024;BME280;42916;54.346;18.562;2023-04-26T09:59:49;99732.64;;;6.54;76.02
57024;BME280;42916;54.346;18.562;2023-04-26T10:02:22;99735.73;;;6.58;76.46
57024;BME280;42916;54.346;18.562;2023-04-26T10:04:55;99741.85;;;6.68;76.66
57024;BME280;42916;54.346;18.562;2023-04-26T10:07:24;99747.20;;;6.67;76.57
57024;BME280;42916;54.346;18.562;2023-04-26T10:09:52;99748.35;;;6.55;76.99
57024;BME280;42916;54.346;18.562;2023-04-26T10:12:19;99752.46;;;6.50;77.31
57024;BME280;42916;54.346;18.562;2023-04-26T10:14:47;99762.74;;;6.37;77.71
57024;BME280;42916;54.346;18.562;2023-04-26T10:17:14;99760.45;;;6.22;78.07
57024;BME280;42916;54.346;18.562;2023-04-26T10:19:42;99766.35;;;6.08;78.40
57024;BME280;42916;54.346;18.562;2023-04-26T10:22:24;99762.58;;;5.95;78.64
57024;BME280;42916;54.346;18.562;2023-04-26T10:24:53;99767.50;;;5.93;78.97
57024;BME280;42916;54.346;18.562;2023-04-26T10:30:13;99772.96;;;6.18;79.70
57024;BME280;42916;54.346;18.562;2023-04-26T10:35:28;99777.46;;;6.78;79.75
57024;BME280;42916;54.346;18.562;2023-04-26T10:45:36;99798.63;;;6.88;79.46
57024;BME280;42916;54.346;18.562;2023-04-26T10:48:19;99804.36;;;6.76;80.05
57024;BME280;42916;54.346;18.562;2023-04-26T10:59:07;99809.36;;;6.23;81.33
57024;BME280;42916;54.346;18.562;2023-04-26T11:01:34;99817.03;;;6.14;81.37
57024;BME280;42916;54.346;18.562;2023-04-26T11:04:11;99815.16;;;6.12;81.00
57024;BME280;42916;54.346;18.562;2023-04-26T11:06:52;99814.20;;;6.19;81.17
57024;BME280;42916;54.346;18.562;2023-04-26T11:12:06;99813.98;;;6.67;80.80
57024;BME280;42916;54.346;18.562;2023-04-26T11:14:33;99810.98;;;6.81;80.18
57024;BME280;42916;54.346;18.562;2023-04-26T11:17:10;99818.45;;;6.84;78.62
57024;BME280;42916;54.346;18.562;2023-04-26T11:19:39;99822.33;;;6.80;78.09
57024;BME280;42916;54.346;18.562;2023-04-26T11:22:07;99837.08;;;6.70;76.83
57024;BME280;42916;54.346;18.562;2023-04-26T11:24:34;99829.08;;;6.61;77.57
57024;BME280;42916;54.346;18.562;2023-04-26T11:27:09;99824.75;;;6.61;78.13
57024;BME280;42916;54.346;18.562;2023-04-26T11:29:37;99821.25;;;6.71;78.14
57024;BME280;42916;54.346;18.562;2023-04-26T11:32:04;99827.47;;;6.93;78.35
57024;BME280;42916;54.346;18.562;2023-04-26T11:34:32;99829.81;;;7.19;77.11
57024;BME280;42916;54.346;18.562;2023-04-26T11:37:04;99829.66;;;7.43;75.72
57024;BME280;42916;54.346;18.562;2023-04-26T11:39:32;99827.38;;;7.67;75.24
57024;BME280;42916;54.346;18.562;2023-04-26T11:42:07;99827.42;;;7.86;73.50
57024;BME280;42916;54.346;18.562;2023-04-26T11:44:35;99827.95;;;8.03;72.83
57024;BME280;42916;54.346;18.562;2023-04-26T11:47:04;99834.20;;;8.23;71.77
57024;BME280;42916;54.346;18.562;2023-04-26T11:49:33;99835.80;;;8.58;69.24
57024;BME280;42916;54.346;18.562;2023-04-26T11:52:02;99828.42;;;8.87;66.23
57024;BME280;42916;54.346;18.562;2023-04-26T11:54:35;99836.77;;;9.12;63.17
57024;BME280;42916;54.346;18.562;2023-04-26T11:57:15;99834.70;;;9.19;60.40
57024;BME280;42916;54.346;18.562;2023-04-26T11:59:43;99835.70;;;9.38;61.36
57024;BME280;42916;54.346;18.562;2023-04-26T12:02:10;99840.66;;;9.58;58.44
57024;BME280;42916;54.346;18.562;2023-04-26T12:04:39;99845.11;;;9.77;56.59
57024;BME280;42916;54.346;18.562;2023-04-26T12:07:06;99844.05;;;10.03;57.21
57024;BME280;42916;54.346;18.562;2023-04-26T12:09:34;99847.70;;;10.21;56.13
57024;BME280;42916;54.346;18.562;2023-04-26T12:12:03;99847.16;;;10.19;52.66
57024;BME280;42916;54.346;18.562;2023-04-26T12:14:37;99855.98;;;10.09;52.99
57024;BME280;42916;54.346;18.562;2023-04-26T12:17:06;99859.30;;;10.09;51.84
57024;BME280;42916;54.346;18.562;2023-04-26T12:19:34;99862.42;;;10.03;50.38
57024;BME280;42916;54.346;18.562;2023-04-26T12:22:03;99861.05;;;9.92;50.17
57024;BME280;42916;54.346;18.562;2023-04-26T12:24:30;99877.30;;;9.92;50.34
57024;BME280;42916;54.346;18.562;2023-04-26T12:27:03;99868.98;;;9.89;50.13
57024;BME280;42916;54.346;18.562;2023-04-26T12:29:32;99871.98;;;9.90;49.02
57024;BME280;42916;54.346;18.562;2023-04-26T12:32:00;99872.11;;;9.66;49.06
57024;BME280;42916;54.346;18.562;2023-04-26T12:34:27;99875.40;;;9.48;50.46
57024;BME280;42916;54.346;18.562;2023-04-26T12:36:54;99882.61;;;9.29;49.22
57024;BME280;42916;54.346;18.562;2023-04-26T12:39:21;99873.64;;;8.96;48.57
57024;BME280;42916;54.346;18.562;2023-04-26T12:41:48;99877.95;;;8.77;50.00
57024;BME280;42916;54.346;18.562;2023-04-26T12:44:15;99885.08;;;8.84;50.65
57024;BME280;42916;54.346;18.562;2023-04-26T12:46:42;99886.67;;;9.17;50.40
57024;BME280;42916;54.346;18.562;2023-04-26T12:49:09;99885.98;;;9.64;51.13
57024;BME280;42916;54.346;18.562;2023-04-26T12:51:35;99875.52;;;10.29;51.04
57024;BME280;42916;54.346;18.562;2023-04-26T12:54:02;99870.42;;;10.87;49.83
57024;BME280;42916;54.346;18.562;2023-04-26T12:56:29;99874.30;;;11.44;49.62
57024;BME280;42916;54.346;18.562;2023-04-26T12:58:55;99880.18;;;11.78;46.24
57024;BME280;42916;54.346;18.562;2023-04-26T13:01:22;99885.59;;;11.81;43.36
57024;BME280;42916;54.346;18.562;2023-04-26T13:03:49;99887.27;;;11.30;43.55
57024;BME280;42916;54.346;18.562;2023-04-26T13:06:16;99895.48;;;10.78;43.36
57024;BME280;42916;54.346;18.562;2023-04-26T13:08:43;99887.32;;;10.29;44.57
57024;BME280;42916;54.346;18.562;2023-04-26T13:11:10;99889.63;;;10.01;45.32
57024;BME280;42916;54.346;18.562;2023-04-26T13:13:36;99889.52;;;9.78;45.59
57024;BME280;42916;54.346;18.562;2023-04-26T13:16:03;99894.97;;;9.58;45.89
57024;BME280;42916;54.346;18.562;2023-04-26T13:18:30;99897.27;;;9.45;46.07
57024;BME280;42916;54.346;18.562;2023-04-26T13:20:57;99899.66;;;9.37;45.11
57024;BME280;42916;54.346;18.562;2023-04-26T13:23:23;99897.42;;;9.51;44.72
57024;BME280;42916;54.346;18.562;2023-04-26T13:25:50;99894.69;;;9.72;43.47
57024;BME280;42916;54.346;18.562;2023-04-26T13:28:17;99905.64;;;9.67;41.79
57024;BME280;42916;54.346;18.562;2023-04-26T13:30:43;99904.32;;;9.51;42.16
57024;BME280;42916;54.346;18.562;2023-04-26T13:33:10;99914.71;;;9.34;42.54
57024;BME280;42916;54.346;18.562;2023-04-26T13:35:37;99922.61;;;9.18;42.34